sensor_id;sensor_type;location;lat;lon;timestamp;pressure;altitude;pressure_sealevel;temperature;humidity
81511;BME280;70931;48.796;8.440;2023-12-29T00:00:12;97272.59;;;9.66;80.83
81511;BME280;70931;48.796;8.440;2023-12-29T00:02:37;97273.25;;;9.60;80.41
81511;BME280;70931;48.796;8.440;2023-12-29T00:05:03;97272.22;;;9.53;81.24
81511;BME280;70931;48.796;8.440;2023-12-29T00:07:28;97264.41;;;9.52;81.14
81511;BME280;70931;48.796;8.440;2023-12-29T00:09:53;97270.91;;;9.57;78.07
81511;BME280;70931;48.796;8.440;2023-12-29T00:12:18;97259.63;;;9.63;79.84
81511;BME280;70931;48.796;8.440;2023-12-29T00:14:44;97266.75;;;9.47;78.43
81511;BME280;70931;48.796;8.440;2023-12-29T00:17:09;97242.09;;;9.45;81.21
81511;BME280;70931;48.796;8.440;2023-12-29T00:19:34;97282.22;;;9.59;81.32
81511;BME280;70931;48.796;8.440;2023-12-29T00:21:59;97272.38;;;9.44;82.04
81511;BME280;70931;48.796;8.440;2023-12-29T00:24:25;97279.91;;;9.64;77.80
81511;BME280;70931;48.796;8.440;2023-12-29T00:26:51;97274.09;;;9.61;77.19
81511;BME280;70931;48.796;8.440;2023-12-29T00:29:16;97285.91;;;9.58;78.68
81511;BME280;70931;48.796;8.440;2023-12-29T00:31:41;97290.88;;;9.61;80.10
81511;BME280;70931;48.796;8.440;2023-12-29T00:34:06;97294.50;;;9.44;77.94
81511;BME280;70931;48.796;8.440;2023-12-29T00:36:32;97284.56;;;9.62;77.54
81511;BME280;70931;48.796;8.440;2023-12-29T00:38:57;97278.91;;;9.65;78.99
81511;BME280;70931;48.796;8.440;2023-12-29T00:41:22;97285.25;;;9.72;77.59
81511;BME280;70931;48.796;8.440;2023-12-29T00:43:47;97285.28;;;9.81;78.88
81511;BME280;70931;48.796;8.440;2023-12-29T00:46:14;97277.59;;;9.69;80.61
81511;BME280;70931;48.796;8.440;2023-12-29T00:48:40;97273.19;;;9.44;79.85
81511;BME280;70931;48.796;8.440;2023-12-29T00:51:05;97235.09;;;9.36;81.03
81511;BME280;70931;48.796;8.440;2023-12-29T00:53:31;97251.09;;;9.52;77.82
81511;BME280;70931;48.796;8.440;2023-12-29T00:55:56;97267.25;;;9.58;78.94
81511;BME280;70931;48.796;8.440;2023-12-29T00:58:21;97262.88;;;9.41;80.99
81511;BME280;70931;48.796;8.440;2023-12-29T01:00:47;97258.91;;;9.45;81.22
81511;BME280;70931;48.796;8.440;2023-12-29T01:03:12;97252.94;;;9.51;80.08
81511;BME280;70931;48.796;8.440;2023-12-29T01:05:38;97239.56;;;9.27;81.98
81511;BME280;70931;48.796;8.440;2023-12-29T01:08:04;97250.91;;;9.45;81.88
81511;BME280;70931;48.796;8.440;2023-12-29T01:10:29;97244.22;;;9.33;82.18
81511;BME280;70931;48.796;8.440;2023-12-29T01:12:54;97203.25;;;9.02;82.55
81511;BME280;70931;48.796;8.440;2023-12-29T01:15:19;97251.25;;;9.50;79.06
81511;BME280;70931;48.796;8.440;2023-12-29T01:17:45;97250.94;;;9.53;78.80
81511;BME280;70931;48.796;8.440;2023-12-29T01:20:10;97238.06;;;9.33;79.82
81511;BME280;70931;48.796;8.440;2023-12-29T01:22:35;97242.28;;;9.67;77.99
81511;BME280;70931;48.796;8.440;2023-12-29T01:25:01;97236.50;;;9.64;79.73
81511;BME280;70931;48.796;8.440;2023-12-29T01:27:26;97244.16;;;9.75;79.68
81511;BME280;70931;48.796;8.440;2023-12-29T01:29:52;97240.66;;;9.66;78.74
81511;BME280;70931;48.796;8.440;2023-12-29T01:32:17;97236.50;;;9.64;79.11
81511;BME280;70931;48.796;8.440;2023-12-29T01:34:42;97236.97;;;9.59;76.62
81511;BME280;70931;48.796;8.440;2023-12-29T01:37:07;97243.97;;;9.77;78.70
81511;BME280;70931;48.796;8.440;2023-12-29T01:39:33;97238.81;;;9.75;77.60
81511;BME280;70931;48.796;8.440;2023-12-29T01:41:58;97243.97;;;9.68;78.69
81511;BME280;70931;48.796;8.440;2023-12-29T01:44:24;97240.50;;;9.84;77.47
81511;BME280;70931;48.796;8.440;2023-12-29T01:46:51;97245.97;;;9.83;77.55
81511;BME280;70931;48.796;8.440;2023-12-29T01:49:17;97262.63;;;9.77;77.19
81511;BME280;70931;48.796;8.440;2023-12-29T01:51:42;97253.13;;;9.66;76.61
81511;BME280;70931;48.796;8.440;2023-12-29T01:54:09;97256.81;;;9.89;77.36
81511;BME280;70931;48.796;8.440;2023-12-29T01:56:35;97253.97;;;9.74;78.25
81511;BME280;70931;48.796;8.440;2023-12-29T01:59:01;97250.59;;;9.64;77.47
81511;BME280;70931;48.796;8.440;2023-12-29T02:01:27;97244.16;;;9.83;77.22
81511;BME280;70931;48.796;8.440;2023-12-29T02:03:52;97242.94;;;9.61;79.17
81511;BME280;70931;48.796;8.440;2023-12-29T02:06:17;97235.31;;;9.66;77.19
81511;BME280;70931;48.796;8.440;2023-12-29T02:08:44;97228.31;;;9.82;76.26
81511;BME280;70931;48.796;8.440;2023-12-29T02:11:10;97227.31;;;9.91;77.22
81511;BME280;70931;48.796;8.440;2023-12-29T02:13:35;97239.34;;;9.87;76.77
81511;BME280;70931;48.796;8.440;2023-12-29T02:16:07;97224.66;;;9.83;77.18
81511;BME280;70931;48.796;8.440;2023-12-29T02:18:34;97233.34;;;10.01;77.46
81511;BME280;70931;48.796;8.440;2023-12-29T02:21:02;97245.66;;;9.69;78.31
81511;BME280;70931;48.796;8.440;2023-12-29T02:23:27;97232.31;;;9.94;77.60
81511;BME280;70931;48.796;8.440;2023-12-29T02:25:55;97224.00;;;9.89;77.03
81511;BME280;70931;48.796;8.440;2023-12-29T02:28:25;97228.50;;;9.88;78.48
81511;BME280;70931;48.796;8.440;2023-12-29T02:33:21;97213.88;;;9.84;78.19
81511;BME280;70931;48.796;8.440;2023-12-29T02:35:48;97220.34;;;9.98;78.21
81511;BME280;70931;48.796;8.440;2023-12-29T02:38:16;97226.00;;;9.87;78.48
81511;BME280;70931;48.796;8.440;2023-12-29T02:40:41;97203.53;;;9.89;78.68
81511;BME280;70931;48.796;8.440;2023-12-29T02:43:08;97208.69;;;9.83;79.54
81511;BME280;70931;48.796;8.440;2023-12-29T02:45:34;97204.34;;;9.49;79.28
81511;BME280;70931;48.796;8.440;2023-12-29T02:47:59;97211.69;;;9.71;78.55
81511;BME280;70931;48.796;8.440;2023-12-29T02:50:24;97189.06;;;9.84;78.06
81511;BME280;70931;48.796;8.440;2023-12-29T02:52:49;97200.38;;;9.86;78.18
81511;BME280;70931;48.796;8.440;2023-12-29T02:55:15;97208.03;;;9.81;78.62
81511;BME280;70931;48.796;8.440;2023-12-29T02:57:40;97225.00;;;9.71;79.07
81511;BME280;70931;48.796;8.440;2023-12-29T03:00:06;97205.38;;;9.81;78.73
81511;BME280;70931;48.796;8.440;2023-12-29T03:02:31;97206.34;;;9.71;78.92
81511;BME280;70931;48.796;8.440;2023-12-29T03:04:56;97205.38;;;9.81;79.14
81511;BME280;70931;48.796;8.440;2023-12-29T03:07:22;97191.88;;;9.66;79.16
81511;BME280;70931;48.796;8.440;2023-12-29T03:09:47;97181.53;;;9.87;78.78
81511;BME280;70931;48.796;8.440;2023-12-29T03:12:12;97180.38;;;9.98;77.96
81511;BME280;70931;48.796;8.440;2023-12-29T03:14:37;97184.38;;;9.94;78.19
81511;BME280;70931;48.796;8.440;2023-12-29T03:17:02;97183.88;;;9.90;78.46
81511;BME280;70931;48.796;8.440;2023-12-29T03:19:28;97180.22;;;9.91;78.91
81511;BME280;70931;48.796;8.440;2023-12-29T03:21:53;97185.41;;;9.93;78.01
81511;BME280;70931;48.796;8.440;2023-12-29T03:24:18;97176.69;;;9.99;78.47
81511;BME280;70931;48.796;8.440;2023-12-29T03:26:43;97187.72;;;9.96;78.80
81511;BME280;70931;48.796;8.440;2023-12-29T03:29:09;97185.22;;;9.94;80.40
81511;BME280;70931;48.796;8.440;2023-12-29T03:31:35;97186.88;;;9.95;78.16
81511;BME280;70931;48.796;8.440;2023-12-29T03:34:00;97184.03;;;9.97;78.81
81511;BME280;70931;48.796;8.440;2023-12-29T03:36:25;97190.72;;;10.01;78.81
81511;BME280;70931;48.796;8.440;2023-12-29T03:38:50;97187.06;;;9.86;78.89
81511;BME280;70931;48.796;8.440;2023-12-29T03:41:16;97186.72;;;9.56;80.45
81511;BME280;70931;48.796;8.440;2023-12-29T03:43:41;97185.38;;;9.68;79.74
81511;BME280;70931;48.796;8.440;2023-12-29T03:46:19;97174.06;;;9.83;78.21
81511;BME280;70931;48.796;8.440;2023-12-29T03:48:45;97177.75;;;9.90;77.60
81511;BME280;70931;48.796;8.440;2023-12-29T03:51:10;97166.72;;;9.85;78.55
81511;BME280;70931;48.796;8.440;2023-12-29T03:53:36;97172.53;;;9.96;77.87
81511;BME280;70931;48.796;8.440;2023-12-29T03:56:08;97175.88;;;10.06;78.73
81511;BME280;70931;48.796;8.440;2023-12-29T03:58:33;97173.06;;;10.00;79.42
81511;BME280;70931;48.796;8.440;2023-12-29T04:00:59;97163.25;;;9.84;80.24
81511;BME280;70931;48.796;8.440;2023-12-29T04:03:24;97181.72;;;9.86;79.81
81511;BME280;70931;48.796;8.440;2023-12-29T04:05:49;97176.88;;;9.73;80.73
81511;BME280;70931;48.796;8.440;2023-12-29T04:08:14;97172.25;;;9.83;80.29
81511;BME280;70931;48.796;8.440;2023-12-29T04:10:40;97173.72;;;9.94;80.36
81511;BME280;70931;48.796;8.440;2023-12-29T04:13:05;97166.06;;;9.83;81.72
81511;BME280;70931;48.796;8.440;2023-12-29T04:15:30;97157.25;;;9.82;80.48
81511;BME280;70931;48.796;8.440;2023-12-29T04:17:55;97158.25;;;9.81;80.14
81511;BME280;70931;48.796;8.440;2023-12-29T04:20:20;97160.09;;;9.89;80.96
81511;BME280;70931;48.796;8.440;2023-12-29T04:22:46;97167.25;;;9.80;79.92
81511;BME280;70931;48.796;8.440;2023-12-29T04:25:11;97161.09;;;9.80;80.38
81511;BME280;70931;48.796;8.440;2023-12-29T04:27:36;97162.59;;;9.74;79.85
81511;BME280;70931;48.796;8.440;2023-12-29T04:30:02;97175.56;;;9.85;80.81
81511;BME280;70931;48.796;8.440;2023-12-29T04:32:27;97162.75;;;9.81;80.61
81511;BME280;70931;48.796;8.440;2023-12-29T04:34:52;97157.75;;;9.78;80.79
81511;BME280;70931;48.796;8.440;2023-12-29T04:37:18;97166.25;;;9.89;80.13
81511;BME280;70931;48.796;8.440;2023-12-29T04:39:43;97153.94;;;9.56;80.30
81511;BME280;70931;48.796;8.440;2023-12-29T04:42:08;97168.41;;;9.78;80.43
81511;BME280;70931;48.796;8.440;2023-12-29T04:44:33;97158.41;;;9.88;80.34
81511;BME280;70931;48.796;8.440;2023-12-29T04:46:58;97162.41;;;9.84;80.92
81511;BME280;70931;48.796;8.440;2023-12-29T04:49:24;97179.72;;;9.88;79.99
81511;BME280;70931;48.796;8.440;2023-12-29T04:51:49;97167.09;;;9.57;81.04
81511;BME280;70931;48.796;8.440;2023-12-29T04:54:14;97163.75;;;9.71;79.95
81511;BME280;70931;48.796;8.440;2023-12-29T04:56:39;97163.25;;;9.68;79.16
81511;BME280;70931;48.796;8.440;2023-12-29T04:59:04;97179.03;;;9.94;79.12
81511;BME280;70931;48.796;8.440;2023-12-29T05:01:30;97156.75;;;9.70;79.52
81511;BME280;70931;48.796;8.440;2023-12-29T05:03:55;97166.41;;;9.80;79.79
81511;BME280;70931;48.796;8.440;2023-12-29T05:06:20;97182.06;;;9.58;80.26
81511;BME280;70931;48.796;8.440;2023-12-29T05:08:45;97172.41;;;9.73;78.91
81511;BME280;70931;48.796;8.440;2023-12-29T05:11:11;97173.41;;;9.81;79.56
81511;BME280;70931;48.796;8.440;2023-12-29T05:13:36;97170.25;;;9.77;79.45
81511;BME280;70931;48.796;8.440;2023-12-29T05:16:01;97170.75;;;9.89;79.44
81511;BME280;70931;48.796;8.440;2023-12-29T05:18:26;97172.75;;;9.87;79.24
81511;BME280;70931;48.796;8.440;2023-12-29T05:20:53;97184.03;;;9.97;79.20
81511;BME280;70931;48.796;8.440;2023-12-29T05:23:18;97176.06;;;9.89;80.48
81511;BME280;70931;48.796;8.440;2023-12-29T05:25:43;97181.56;;;9.79;80.73
81511;BME280;70931;48.796;8.440;2023-12-29T05:28:08;97186.38;;;9.59;82.04
81511;BME280;70931;48.796;8.440;2023-12-29T05:30:34;97186.88;;;9.63;82.35
81511;BME280;70931;48.796;8.440;2023-12-29T05:32:59;97188.53;;;9.48;82.55
81511;BME280;70931;48.796;8.440;2023-12-29T05:35:24;97191.69;;;9.59;82.97
81511;BME280;70931;48.796;8.440;2023-12-29T05:37:49;97188.72;;;9.54;83.40
81511;BME280;70931;48.796;8.440;2023-12-29T05:40:14;97188.72;;;9.62;82.66
81511;BME280;70931;48.796;8.440;2023-12-29T05:42:40;97187.72;;;9.71;82.03
81511;BME280;70931;48.796;8.440;2023-12-29T05:45:05;97185.72;;;9.65;82.44
81511;BME280;70931;48.796;8.440;2023-12-29T05:47:30;97169.06;;;9.47;82.43
81511;BME280;70931;48.796;8.440;2023-12-29T05:49:56;97177.06;;;9.63;81.70
81511;BME280;70931;48.796;8.440;2023-12-29T05:52:21;97170.91;;;9.79;81.38
81511;BME280;70931;48.796;8.440;2023-12-29T05:54:46;97168.09;;;9.81;81.75
81511;BME280;70931;48.796;8.440;2023-12-29T05:57:11;97180.91;;;9.69;81.76
81511;BME280;70931;48.796;8.440;2023-12-29T05:59:37;97169.72;;;9.82;81.80
81511;BME280;70931;48.796;8.440;2023-12-29T06:02:02;97172.56;;;9.80;81.41
81511;BME280;70931;48.796;8.440;2023-12-29T06:04:27;97161.25;;;9.78;80.80
81511;BME280;70931;48.796;8.440;2023-12-29T06:06:53;97163.25;;;9.84;80.87
81511;BME280;70931;48.796;8.440;2023-12-29T06:09:18;97176.09;;;9.72;81.21
81511;BME280;70931;48.796;8.440;2023-12-29T06:11:43;97152.78;;;9.74;81.77
81511;BME280;70931;48.796;8.440;2023-12-29T06:14:08;97168.75;;;9.58;80.90
81511;BME280;70931;48.796;8.440;2023-12-29T06:16:34;97156.75;;;9.70;80.36
81511;BME280;70931;48.796;8.440;2023-12-29T06:18:59;97159.41;;;9.95;79.57
81511;BME280;70931;48.796;8.440;2023-12-29T06:21:24;97177.53;;;9.99;79.87
81511;BME280;70931;48.796;8.440;2023-12-29T06:23:49;97164.91;;;10.01;79.21
81511;BME280;70931;48.796;8.440;2023-12-29T06:26:18;97164.41;;;9.98;79.06
81511;BME280;70931;48.796;8.440;2023-12-29T06:28:45;97160.41;;;9.86;78.75
81511;BME280;70931;48.796;8.440;2023-12-29T06:31:10;97141.44;;;9.81;78.52
81511;BME280;70931;48.796;8.440;2023-12-29T06:33:35;97167.72;;;10.00;77.72
81511;BME280;70931;48.796;8.440;2023-12-29T06:36:01;97152.56;;;10.00;78.25
81511;BME280;70931;48.796;8.440;2023-12-29T06:38:26;97152.91;;;10.05;77.86
81511;BME280;70931;48.796;8.440;2023-12-29T06:40:51;97160.41;;;10.10;77.79
81511;BME280;70931;48.796;8.440;2023-12-29T06:43:17;97164.72;;;10.27;77.40
81511;BME280;70931;48.796;8.440;2023-12-29T06:45:42;97180.38;;;10.22;77.05
81511;BME280;70931;48.796;8.440;2023-12-29T06:48:07;97155.41;;;10.15;78.00
81511;BME280;70931;48.796;8.440;2023-12-29T06:50:33;97142.75;;;10.17;77.19
81511;BME280;70931;48.796;8.440;2023-12-29T06:52:58;97154.72;;;10.05;77.23
81511;BME280;70931;48.796;8.440;2023-12-29T06:55:24;97152.09;;;10.13;76.84
81511;BME280;70931;48.796;8.440;2023-12-29T06:57:50;97155.69;;;10.44;75.97
81511;BME280;70931;48.796;8.440;2023-12-29T07:00:15;97144.31;;;10.50;75.46
81511;BME280;70931;48.796;8.440;2023-12-29T07:02:40;97151.06;;;10.22;76.85
81511;BME280;70931;48.796;8.440;2023-12-29T07:05:06;97138.69;;;10.37;76.97
81511;BME280;70931;48.796;8.440;2023-12-29T07:07:31;97151.88;;;10.39;75.80
81511;BME280;70931;48.796;8.440;2023-12-29T07:09:56;97147.97;;;10.49;75.43
81511;BME280;70931;48.796;8.440;2023-12-29T07:12:21;97157.03;;;10.32;76.28
81511;BME280;70931;48.796;8.440;2023-12-29T07:14:47;97157.66;;;10.42;75.66
81511;BME280;70931;48.796;8.440;2023-12-29T07:17:12;97156.69;;;10.35;75.70
81511;BME280;70931;48.796;8.440;2023-12-29T07:19:37;97157.06;;;10.24;77.13
81511;BME280;70931;48.796;8.440;2023-12-29T07:22:03;97142.41;;;10.20;76.08
81511;BME280;70931;48.796;8.440;2023-12-29T07:24:29;97151.88;;;10.39;75.15
81511;BME280;70931;48.796;8.440;2023-12-29T07:26:54;97164.16;;;10.40;76.38
81511;BME280;70931;48.796;8.440;2023-12-29T07:29:19;97157.53;;;10.36;75.92
81511;BME280;70931;48.796;8.440;2023-12-29T07:31:44;97158.16;;;10.46;75.61
81511;BME280;70931;48.796;8.440;2023-12-29T07:34:10;97158.31;;;10.52;75.82
81511;BME280;70931;48.796;8.440;2023-12-29T07:36:38;97157.38;;;10.29;75.84
81511;BME280;70931;48.796;8.440;2023-12-29T07:39:03;97165.50;;;10.44;75.30
81511;BME280;70931;48.796;8.440;2023-12-29T07:41:29;97149.41;;;10.21;75.66
81511;BME280;70931;48.796;8.440;2023-12-29T07:43:54;97152.31;;;10.50;74.97
81511;BME280;70931;48.796;8.440;2023-12-29T07:46:26;97162.72;;;10.29;75.00
81511;BME280;70931;48.796;8.440;2023-12-29T07:48:51;97159.31;;;10.51;74.42
81511;BME280;70931;48.796;8.440;2023-12-29T07:51:17;97153.00;;;10.44;75.30
81511;BME280;70931;48.796;8.440;2023-12-29T07:53:42;97163.63;;;10.52;74.60
81511;BME280;70931;48.796;8.440;2023-12-29T07:56:07;97148.63;;;10.51;73.92
81511;BME280;70931;48.796;8.440;2023-12-29T07:58:32;97156.59;;;10.59;73.93
81511;BME280;70931;48.796;8.440;2023-12-29T08:00:57;97163.63;;;10.52;74.63
81511;BME280;70931;48.796;8.440;2023-12-29T08:03:23;97173.63;;;10.58;74.71
81511;BME280;70931;48.796;8.440;2023-12-29T08:05:48;97175.94;;;10.53;74.76
81511;BME280;70931;48.796;8.440;2023-12-29T08:08:13;97175.63;;;10.48;74.83
81511;BME280;70931;48.796;8.440;2023-12-29T08:10:38;97181.28;;;10.53;74.16
81511;BME280;70931;48.796;8.440;2023-12-29T08:13:04;97178.63;;;10.61;73.23
81511;BME280;70931;48.796;8.440;2023-12-29T08:15:29;97178.22;;;10.72;73.83
81511;BME280;70931;48.796;8.440;2023-12-29T08:17:55;97177.22;;;10.73;72.95
81511;BME280;70931;48.796;8.440;2023-12-29T08:20:21;97163.22;;;10.71;72.79
81511;BME280;70931;48.796;8.440;2023-12-29T08:22:46;97164.06;;;10.72;73.50
81511;BME280;70931;48.796;8.440;2023-12-29T08:25:11;97186.44;;;10.63;73.17
81511;BME280;70931;48.796;8.440;2023-12-29T08:27:36;97176.91;;;10.99;72.37
81511;BME280;70931;48.796;8.440;2023-12-29T08:30:02;97200.91;;;10.68;73.21
81511;BME280;70931;48.796;8.440;2023-12-29T08:32:27;97192.06;;;10.76;73.19
81511;BME280;70931;48.796;8.440;2023-12-29T08:34:52;97183.19;;;10.83;73.18
81511;BME280;70931;48.796;8.440;2023-12-29T08:37:17;97184.72;;;10.78;72.95
81511;BME280;70931;48.796;8.440;2023-12-29T08:39:43;97190.88;;;10.70;74.06
81511;BME280;70931;48.796;8.440;2023-12-29T08:42:08;97185.78;;;10.61;73.35
81511;BME280;70931;48.796;8.440;2023-12-29T08:44:33;97220.75;;;10.66;72.68
81511;BME280;70931;48.796;8.440;2023-12-29T08:46:58;97203.19;;;10.79;72.43
81511;BME280;70931;48.796;8.440;2023-12-29T08:49:23;97200.97;;;10.91;72.62
81511;BME280;70931;48.796;8.440;2023-12-29T08:51:49;97203.06;;;10.73;72.99
81511;BME280;70931;48.796;8.440;2023-12-29T08:54:14;97191.16;;;10.92;73.39
81511;BME280;70931;48.796;8.440;2023-12-29T08:56:39;97205.03;;;10.87;73.67
81511;BME280;70931;48.796;8.440;2023-12-29T08:59:04;97207.72;;;10.71;73.51
81511;BME280;70931;48.796;8.440;2023-12-29T09:01:29;97180.50;;;10.37;73.49
81511;BME280;70931;48.796;8.440;2023-12-29T09:03:55;97224.88;;;10.76;73.99
81511;BME280;70931;48.796;8.440;2023-12-29T09:06:20;97226.47;;;10.47;74.85
81511;BME280;70931;48.796;8.440;2023-12-29T09:08:45;97214.00;;;10.31;75.62
81511;BME280;70931;48.796;8.440;2023-12-29T09:11:10;97238.69;;;10.33;76.44
81511;BME280;70931;48.796;8.440;2023-12-29T09:13:36;97241.00;;;10.28;76.38
81511;BME280;70931;48.796;8.440;2023-12-29T09:16:01;97225.97;;;10.43;76.20
81511;BME280;70931;48.796;8.440;2023-12-29T09:18:26;97239.50;;;10.25;76.56
81511;BME280;70931;48.796;8.440;2023-12-29T09:20:51;97228.03;;;10.17;77.27
81511;BME280;70931;48.796;8.440;2023-12-29T09:23:17;97224.03;;;10.21;76.74
81511;BME280;70931;48.796;8.440;2023-12-29T09:25:42;97237.34;;;10.29;76.24
81511;BME280;70931;48.796;8.440;2023-12-29T09:28:08;97204.03;;;10.09;76.45
81511;BME280;70931;48.796;8.440;2023-12-29T09:30:33;97225.47;;;10.40;76.25
81511;BME280;70931;48.796;8.440;2023-12-29T09:32:58;97235.00;;;10.26;76.78
81511;BME280;70931;48.796;8.440;2023-12-29T09:35:23;97244.34;;;10.14;77.01
81511;BME280;70931;48.796;8.440;2023-12-29T09:37:49;97248.97;;;10.36;76.72
81511;BME280;70931;48.796;8.440;2023-12-29T09:40:14;97249.69;;;10.30;76.05
81511;BME280;70931;48.796;8.440;2023-12-29T09:42:42;97241.50;;;10.32;76.11
81511;BME280;70931;48.796;8.440;2023-12-29T09:45:10;97235.31;;;10.47;75.77
81511;BME280;70931;48.796;8.440;2023-12-29T09:47:41;97228.19;;;10.23;76.21
81511;BME280;70931;48.796;8.440;2023-12-29T09:50:09;97216.31;;;10.42;75.14
81511;BME280;70931;48.796;8.440;2023-12-29T09:52:36;97237.47;;;10.52;73.96
81511;BME280;70931;48.796;8.440;2023-12-29T09:55:03;97197.00;;;10.40;74.80
81511;BME280;70931;48.796;8.440;2023-12-29T09:57:28;97226.94;;;10.58;74.12
81511;BME280;70931;48.796;8.440;2023-12-29T09:59:54;97220.94;;;10.64;73.07
81511;BME280;70931;48.796;8.440;2023-12-29T10:02:20;97209.38;;;10.80;72.48
81511;BME280;70931;48.796;8.440;2023-12-29T10:04:45;97220.09;;;11.03;72.51
81511;BME280;70931;48.796;8.440;2023-12-29T10:07:16;97206.66;;;10.96;70.74
81511;BME280;70931;48.796;8.440;2023-12-29T10:09:45;97189.75;;;11.04;70.99
81511;BME280;70931;48.796;8.440;2023-12-29T10:12:11;97187.38;;;11.09;72.26
81511;BME280;70931;48.796;8.440;2023-12-29T10:14:51;97194.81;;;11.52;70.80
81511;BME280;70931;48.796;8.440;2023-12-29T10:17:36;97197.41;;;11.60;70.94
81511;BME280;70931;48.796;8.440;2023-12-29T10:20:18;97190.88;;;11.71;69.35
81511;BME280;70931;48.796;8.440;2023-12-29T10:22:57;97191.94;;;11.54;70.05
81511;BME280;70931;48.796;8.440;2023-12-29T10:25:27;97180.03;;;11.41;69.59
81511;BME280;70931;48.796;8.440;2023-12-29T10:27:52;97186.84;;;11.44;67.17
81511;BME280;70931;48.796;8.440;2023-12-29T10:30:18;97184.06;;;11.60;68.06
81511;BME280;70931;48.796;8.440;2023-12-29T10:32:43;97187.69;;;11.67;69.90
81511;BME280;70931;48.796;8.440;2023-12-29T10:35:14;97194.34;;;11.18;68.55
81511;BME280;70931;48.796;8.440;2023-12-29T10:37:39;97185.06;;;11.36;68.14
81511;BME280;70931;48.796;8.440;2023-12-29T10:40:05;97185.28;;;11.27;68.23
81511;BME280;70931;48.796;8.440;2023-12-29T10:42:30;97181.59;;;11.28;68.39
81511;BME280;70931;48.796;8.440;2023-12-29T10:45:06;97167.78;;;11.24;67.41
81511;BME280;70931;48.796;8.440;2023-12-29T10:47:32;97180.81;;;11.50;67.46
81511;BME280;70931;48.796;8.440;2023-12-29T10:50:02;97183.31;;;11.74;67.79
81511;BME280;70931;48.796;8.440;2023-12-29T10:52:27;97172.00;;;11.72;65.71
81511;BME280;70931;48.796;8.440;2023-12-29T10:55:07;97172.28;;;11.77;66.46
81511;BME280;70931;48.796;8.440;2023-12-29T10:57:32;97149.69;;;11.57;66.17
81511;BME280;70931;48.796;8.440;2023-12-29T10:59:58;97152.00;;;11.60;65.44
81511;BME280;70931;48.796;8.440;2023-12-29T11:02:23;97158.97;;;11.69;66.13
81511;BME280;70931;48.796;8.440;2023-12-29T11:04:48;97163.38;;;11.85;65.91
81511;BME280;70931;48.796;8.440;2023-12-29T11:07:14;97138.91;;;11.51;67.45
81511;BME280;70931;48.796;8.440;2023-12-29T11:09:40;97154.31;;;11.63;64.88
81511;BME280;70931;48.796;8.440;2023-12-29T11:12:05;97152.38;;;11.57;65.52
81511;BME280;70931;48.796;8.440;2023-12-29T11:14:31;97158.72;;;11.33;67.24
81511;BME280;70931;48.796;8.440;2023-12-29T11:16:57;97155.63;;;11.22;66.68
81511;BME280;70931;48.796;8.440;2023-12-29T11:19:23;97158.47;;;11.43;66.49
81511;BME280;70931;48.796;8.440;2023-12-29T11:21:52;97148.75;;;11.27;66.56
81511;BME280;70931;48.796;8.440;2023-12-29T11:24:17;97141.88;;;11.33;68.24
81511;BME280;70931;48.796;8.440;2023-12-29T11:26:43;97138.03;;;11.35;68.58
81511;BME280;70931;48.796;8.440;2023-12-29T11:29:09;97137.47;;;11.40;67.61
81511;BME280;70931;48.796;8.440;2023-12-29T11:31:36;97149.97;;;11.39;65.69
81511;BME280;70931;48.796;8.440;2023-12-29T11:34:09;97138.59;;;11.45;65.98
81511;BME280;70931;48.796;8.440;2023-12-29T11:36:39;97128.69;;;11.54;65.03
81511;BME280;70931;48.796;8.440;2023-12-29T11:44:27;97119.38;;;11.50;64.84
81511;BME280;70931;48.796;8.440;2023-12-29T11:46:53;97121.59;;;11.24;64.85
81511;BME280;70931;48.796;8.440;2023-12-29T11:49:18;97143.50;;;11.42;65.55
81511;BME280;70931;48.796;8.440;2023-12-29T11:51:46;97118.13;;;11.61;64.70
81511;BME280;70931;48.796;8.440;2023-12-29T11:54:24;97125.78;;;11.64;64.77
81511;BME280;70931;48.796;8.440;2023-12-29T11:56:50;97096.53;;;11.70;65.10
81511;BME280;70931;48.796;8.440;2023-12-29T11:59:16;97119.66;;;11.55;64.13
81511;BME280;70931;48.796;8.440;2023-12-29T12:01:42;97121.91;;;11.66;64.07
81511;BME280;70931;48.796;8.440;2023-12-29T12:07:01;97100.22;;;11.69;64.71
81511;BME280;70931;48.796;8.440;2023-12-29T12:09:26;97111.94;;;11.83;65.35
81511;BME280;70931;48.796;8.440;2023-12-29T12:11:51;97109.09;;;11.84;64.47
81511;BME280;70931;48.796;8.440;2023-12-29T12:17:26;97099.53;;;12.05;63.80
81511;BME280;70931;48.796;8.440;2023-12-29T12:19:56;97086.28;;;11.96;65.15
81511;BME280;70931;48.796;8.440;2023-12-29T12:22:23;97095.47;;;11.79;64.25
81511;BME280;70931;48.796;8.440;2023-12-29T12:24:55;97098.88;;;11.88;64.75
81511;BME280;70931;48.796;8.440;2023-12-29T12:27:20;97091.75;;;11.80;64.00
81511;BME280;70931;48.796;8.440;2023-12-29T12:29:45;97075.63;;;11.74;65.15
81511;BME280;70931;48.796;8.440;2023-12-29T12:32:16;97092.13;;;11.77;64.43
81511;BME280;70931;48.796;8.440;2023-12-29T12:34:41;97101.28;;;11.97;64.08
81511;BME280;70931;48.796;8.440;2023-12-29T12:37:06;97117.59;;;12.02;63.52
81511;BME280;70931;48.796;8.440;2023-12-29T12:39:41;97092.69;;;11.87;63.37
81511;BME280;70931;48.796;8.440;2023-12-29T12:42:06;97097.88;;;12.04;65.66
81511;BME280;70931;48.796;8.440;2023-12-29T12:44:31;97117.56;;;11.73;64.63
81511;BME280;70931;48.796;8.440;2023-12-29T12:46:59;97105.13;;;11.80;64.13
81511;BME280;70931;48.796;8.440;2023-12-29T12:49:25;97097.78;;;11.37;65.24
81511;BME280;70931;48.796;8.440;2023-12-29T12:51:50;97101.97;;;11.54;65.10
81511;BME280;70931;48.796;8.440;2023-12-29T12:54:19;97111.53;;;11.26;64.76
81511;BME280;70931;48.796;8.440;2023-12-29T12:56:45;97096.06;;;11.44;64.81
81511;BME280;70931;48.796;8.440;2023-12-29T12:59:11;97084.00;;;11.48;64.92
81511;BME280;70931;48.796;8.440;2023-12-29T13:01:37;97076.97;;;11.10;66.06
81511;BME280;70931;48.796;8.440;2023-12-29T13:04:03;97105.34;;;11.48;65.77
81511;BME280;70931;48.796;8.440;2023-12-29T13:06:29;97098.72;;;11.44;66.59
81511;BME280;70931;48.796;8.440;2023-12-29T13:08:54;97098.72;;;11.44;66.23
81511;BME280;70931;48.796;8.440;2023-12-29T13:11:20;97075.13;;;11.10;66.69